sensor_id;sensor_type;location;lat;lon;timestamp;P1;durP1;ratioP1;P2;durP2;ratioP2
21122;SDS011;10719;48.130;11.630;2024-01-15T00:01:33;6.93;;;2.40;;
21122;SDS011;10719;48.130;11.630;2024-01-15T00:03:59;7.80;;;2.43;;
21122;SDS011;10719;48.130;11.630;2024-01-15T00:06:25;7.40;;;2.93;;
21122;SDS011;10719;48.130;11.630;2024-01-15T00:08:52;6.50;;;2.17;;
21122;SDS011;10719;48.130;11.630;2024-01-15T00:11:17;8.47;;;2.47;;
21122;SDS011;10719;48.130;11.630;2024-01-15T00:13:43;8.37;;;2.87;;
21122;SDS011;10719;48.130;11.630;2024-01-15T00:16:08;7.93;;;2.50;;
21122;SDS011;10719;48.130;11.630;2024-01-15T00:18:34;7.43;;;2.97;;
21122;SDS011;10719;48.130;11.630;2024-01-15T00:20:59;7.43;;;2.50;;
21122;SDS011;10719;48.130;11.630;2024-01-15T00:23:25;12.50;;;3.33;;
21122;SDS011;10719;48.130;11.630;2024-01-15T00:25:50;7.00;;;2.20;;
21122;SDS011;10719;48.130;11.630;2024-01-15T00:28:16;9.13;;;2.63;;
21122;SDS011;10719;48.130;11.630;2024-01-15T00:30:42;9.60;;;3.07;;
21122;SDS011;10719;48.130;11.630;2024-01-15T00:33:07;10.03;;;3.27;;
21122;SDS011;10719;48.130;11.630;2024-01-15T00:35:34;8.70;;;3.20;;
21122;SDS011;10719;48.130;11.630;2024-01-15T00:38:00;11.33;;;4.20;;
21122;SDS011;10719;48.130;11.630;2024-01-15T00:40:25;13.63;;;4.17;;
21122;SDS011;10719;48.130;11.630;2024-01-15T00:42:51;10.30;;;3.77;;
21122;SDS011;10719;48.130;11.630;2024-01-15T00:45:16;10.37;;;3.80;;
21122;SDS011;10719;48.130;11.630;2024-01-15T00:47:42;14.37;;;4.60;;
21122;SDS011;10719;48.130;11.630;2024-01-15T00:50:08;12.20;;;4.13;;
21122;SDS011;10719;48.130;11.630;2024-01-15T00:52:34;11.97;;;3.87;;
21122;SDS011;10719;48.130;11.630;2024-01-15T00:55:00;9.87;;;3.83;;
21122;SDS011;10719;48.130;11.630;2024-01-15T00:57:25;11.53;;;3.87;;
21122;SDS011;10719;48.130;11.630;2024-01-15T00:59:51;9.83;;;2.77;;
21122;SDS011;10719;48.130;11.630;2024-01-15T01:02:17;10.87;;;3.70;;
21122;SDS011;10719;48.130;11.630;2024-01-15T01:04:42;10.27;;;3.23;;
21122;SDS011;10719;48.130;11.630;2024-01-15T01:07:08;11.80;;;4.43;;
21122;SDS011;10719;48.130;11.630;2024-01-15T01:09:33;9.47;;;3.10;;
21122;SDS011;10719;48.130;11.630;2024-01-15T01:11:59;12.23;;;3.73;;
21122;SDS011;10719;48.130;11.630;2024-01-15T01:14:25;15.13;;;5.33;;
21122;SDS011;10719;48.130;11.630;2024-01-15T01:16:50;11.10;;;4.50;;
21122;SDS011;10719;48.130;11.630;2024-01-15T01:19:16;11.30;;;4.37;;
21122;SDS011;10719;48.130;11.630;2024-01-15T01:21:41;11.60;;;4.10;;
21122;SDS011;10719;48.130;11.630;2024-01-15T01:24:07;16.37;;;4.23;;
21122;SDS011;10719;48.130;11.630;2024-01-15T01:26:32;11.33;;;3.63;;
21122;SDS011;10719;48.130;11.630;2024-01-15T01:28:58;13.17;;;4.10;;
21122;SDS011;10719;48.130;11.630;2024-01-15T01:31:24;9.10;;;3.43;;
21122;SDS011;10719;48.130;11.630;2024-01-15T01:33:49;14.23;;;5.17;;
21122;SDS011;10719;48.130;11.630;2024-01-15T01:36:15;17.33;;;5.93;;
21122;SDS011;10719;48.130;11.630;2024-01-15T01:38:41;14.30;;;4.73;;
21122;SDS011;10719;48.130;11.630;2024-01-15T01:41:06;11.97;;;4.27;;
21122;SDS011;10719;48.130;11.630;2024-01-15T01:43:32;15.17;;;4.30;;
21122;SDS011;10719;48.130;11.630;2024-01-15T01:45:58;12.23;;;4.40;;
21122;SDS011;10719;48.130;11.630;2024-01-15T01:48:25;12.07;;;3.77;;
21122;SDS011;10719;48.130;11.630;2024-01-15T01:50:56;12.87;;;4.20;;
21122;SDS011;10719;48.130;11.630;2024-01-15T01:53:23;12.93;;;4.37;;
21122;SDS011;10719;48.130;11.630;2024-01-15T01:55:49;11.63;;;4.20;;
21122;SDS011;10719;48.130;11.630;2024-01-15T01:58:16;10.93;;;4.10;;
21122;SDS011;10719;48.130;11.630;2024-01-15T02:00:42;9.87;;;3.70;;
21122;SDS011;10719;48.130;11.630;2024-01-15T02:03:08;12.67;;;4.03;;
21122;SDS011;10719;48.130;11.630;2024-01-15T02:05:34;11.57;;;4.10;;
21122;SDS011;10719;48.130;11.630;2024-01-15T02:08:01;9.00;;;3.57;;
21122;SDS011;10719;48.130;11.630;2024-01-15T02:10:26;12.90;;;3.80;;
21122;SDS011;10719;48.130;11.630;2024-01-15T02:12:52;8.87;;;3.10;;
21122;SDS011;10719;48.130;11.630;2024-01-15T02:15:18;10.13;;;3.73;;
21122;SDS011;10719;48.130;11.630;2024-01-15T02:17:56;14.77;;;4.97;;
21122;SDS011;10719;48.130;11.630;2024-01-15T02:20:25;9.27;;;2.97;;
21122;SDS011;10719;48.130;11.630;2024-01-15T02:22:51;10.77;;;3.27;;
21122;SDS011;10719;48.130;11.630;2024-01-15T02:25:17;12.63;;;3.93;;
21122;SDS011;10719;48.130;11.630;2024-01-15T02:27:43;15.50;;;3.83;;
21122;SDS011;10719;48.130;11.630;2024-01-15T02:30:13;14.37;;;4.57;;
21122;SDS011;10719;48.130;11.630;2024-01-15T02:32:39;12.00;;;4.37;;
21122;SDS011;10719;48.130;11.630;2024-01-15T02:35:04;13.33;;;4.07;;
21122;SDS011;10719;48.130;11.630;2024-01-15T02:37:30;10.77;;;3.57;;
21122;SDS011;10719;48.130;11.630;2024-01-15T02:39:56;10.93;;;3.63;;
21122;SDS011;10719;48.130;11.630;2024-01-15T02:42:21;11.40;;;3.83;;
21122;SDS011;10719;48.130;11.630;2024-01-15T02:44:47;15.27;;;4.30;;
21122;SDS011;10719;48.130;11.630;2024-01-15T02:47:13;10.80;;;3.73;;
21122;SDS011;10719;48.130;11.630;2024-01-15T02:49:39;13.27;;;3.90;;
21122;SDS011;10719;48.130;11.630;2024-01-15T02:52:05;9.40;;;2.97;;
21122;SDS011;10719;48.130;11.630;2024-01-15T02:54:31;10.83;;;3.60;;
21122;SDS011;10719;48.130;11.630;2024-01-15T02:56:57;15.27;;;4.00;;
21122;SDS011;10719;48.130;11.630;2024-01-15T02:59:23;9.93;;;3.90;;
21122;SDS011;10719;48.130;11.630;2024-01-15T03:01:48;12.00;;;3.93;;
21122;SDS011;10719;48.130;11.630;2024-01-15T03:04:14;13.40;;;4.37;;
21122;SDS011;10719;48.130;11.630;2024-01-15T03:06:40;12.63;;;4.40;;
21122;SDS011;10719;48.130;11.630;2024-01-15T03:09:05;11.97;;;4.03;;
21122;SDS011;10719;48.130;11.630;2024-01-15T03:11:36;10.73;;;3.90;;
21122;SDS011;10719;48.130;11.630;2024-01-15T03:14:05;13.00;;;4.10;;
21122;SDS011;10719;48.130;11.630;2024-01-15T03:16:31;8.10;;;3.40;;
21122;SDS011;10719;48.130;11.630;2024-01-15T03:18:57;10.70;;;3.27;;
21122;SDS011;10719;48.130;11.630;2024-01-15T03:21:22;13.33;;;3.83;;
21122;SDS011;10719;48.130;11.630;2024-01-15T03:23:48;14.00;;;4.00;;
21122;SDS011;10719;48.130;11.630;2024-01-15T03:26:14;11.00;;;3.87;;
21122;SDS011;10719;48.130;11.630;2024-01-15T03:28:39;10.97;;;3.37;;
21122;SDS011;10719;48.130;11.630;2024-01-15T03:31:05;10.50;;;3.97;;
21122;SDS011;10719;48.130;11.630;2024-01-15T03:33:30;13.57;;;4.23;;
21122;SDS011;10719;48.130;11.630;2024-01-15T03:35:56;11.07;;;3.87;;
21122;SDS011;10719;48.130;11.630;2024-01-15T03:38:22;11.00;;;3.30;;
21122;SDS011;10719;48.130;11.630;2024-01-15T03:40:48;14.00;;;4.70;;
21122;SDS011;10719;48.130;11.630;2024-01-15T03:43:14;10.13;;;3.43;;
21122;SDS011;10719;48.130;11.630;2024-01-15T03:45:39;8.30;;;3.13;;
21122;SDS011;10719;48.130;11.630;2024-01-15T03:48:05;10.10;;;3.20;;
21122;SDS011;10719;48.130;11.630;2024-01-15T03:50:31;10.57;;;3.90;;
21122;SDS011;10719;48.130;11.630;2024-01-15T03:52:56;10.93;;;3.40;;
21122;SDS011;10719;48.130;11.630;2024-01-15T03:55:22;8.10;;;3.10;;
21122;SDS011;10719;48.130;11.630;2024-01-15T03:57:48;10.83;;;3.40;;
21122;SDS011;10719;48.130;11.630;2024-01-15T04:00:14;8.10;;;3.00;;
21122;SDS011;10719;48.130;11.630;2024-01-15T04:02:42;8.57;;;2.87;;
21122;SDS011;10719;48.130;11.630;2024-01-15T04:05:09;9.27;;;3.30;;
21122;SDS011;10719;48.130;11.630;2024-01-15T04:07:35;5.07;;;1.60;;
21122;SDS011;10719;48.130;11.630;2024-01-15T04:10:00;7.37;;;2.63;;
21122;SDS011;10719;48.130;11.630;2024-01-15T04:12:26;10.60;;;3.33;;
21122;SDS011;10719;48.130;11.630;2024-01-15T04:14:52;10.97;;;3.27;;
21122;SDS011;10719;48.130;11.630;2024-01-15T04:17:17;10.00;;;3.20;;
21122;SDS011;10719;48.130;11.630;2024-01-15T04:19:44;9.27;;;3.13;;
21122;SDS011;10719;48.130;11.630;2024-01-15T04:22:09;11.57;;;3.87;;
21122;SDS011;10719;48.130;11.630;2024-01-15T04:24:35;8.20;;;3.33;;
21122;SDS011;10719;48.130;11.630;2024-01-15T04:27:00;15.00;;;3.53;;
21122;SDS011;10719;48.130;11.630;2024-01-15T04:29:26;17.37;;;4.13;;
21122;SDS011;10719;48.130;11.630;2024-01-15T04:31:52;10.70;;;3.30;;
21122;SDS011;10719;48.130;11.630;2024-01-15T04:34:18;9.87;;;3.20;;
21122;SDS011;10719;48.130;11.630;2024-01-15T04:36:44;8.27;;;2.80;;
21122;SDS011;10719;48.130;11.630;2024-01-15T04:39:09;7.63;;;2.57;;
21122;SDS011;10719;48.130;11.630;2024-01-15T04:41:36;8.13;;;3.03;;
21122;SDS011;10719;48.130;11.630;2024-01-15T04:44:02;8.90;;;3.43;;
21122;SDS011;10719;48.130;11.630;2024-01-15T04:46:28;11.93;;;3.37;;
21122;SDS011;10719;48.130;11.630;2024-01-15T04:48:53;12.80;;;3.47;;
21122;SDS011;10719;48.130;11.630;2024-01-15T04:51:19;10.20;;;3.00;;
21122;SDS011;10719;48.130;11.630;2024-01-15T04:53:44;8.43;;;3.20;;
21122;SDS011;10719;48.130;11.630;2024-01-15T04:56:10;11.93;;;3.90;;
21122;SDS011;10719;48.130;11.630;2024-01-15T04:58:36;10.33;;;3.80;;
21122;SDS011;10719;48.130;11.630;2024-01-15T05:01:01;11.27;;;3.73;;
21122;SDS011;10719;48.130;11.630;2024-01-15T05:03:27;5.17;;;2.10;;
21122;SDS011;10719;48.130;11.630;2024-01-15T05:05:52;6.20;;;2.47;;
21122;SDS011;10719;48.130;11.630;2024-01-15T05:08:18;11.13;;;3.03;;
21122;SDS011;10719;48.130;11.630;2024-01-15T05:10:44;9.53;;;3.10;;
21122;SDS011;10719;48.130;11.630;2024-01-15T05:13:10;9.27;;;2.40;;
21122;SDS011;10719;48.130;11.630;2024-01-15T05:15:35;8.03;;;3.13;;
21122;SDS011;10719;48.130;11.630;2024-01-15T05:18:02;7.10;;;2.60;;
21122;SDS011;10719;48.130;11.630;2024-01-15T05:20:27;7.93;;;2.50;;
21122;SDS011;10719;48.130;11.630;2024-01-15T05:22:53;10.77;;;2.87;;
21122;SDS011;10719;48.130;11.630;2024-01-15T05:25:19;7.43;;;2.63;;
21122;SDS011;10719;48.130;11.630;2024-01-15T05:27:44;4.77;;;2.03;;
21122;SDS011;10719;48.130;11.630;2024-01-15T05:30:10;9.47;;;2.70;;
21122;SDS011;10719;48.130;11.630;2024-01-15T05:32:36;8.20;;;2.97;;
21122;SDS011;10719;48.130;11.630;2024-01-15T05:35:01;7.60;;;1.93;;
21122;SDS011;10719;48.130;11.630;2024-01-15T05:37:27;9.10;;;2.87;;
21122;SDS011;10719;48.130;11.630;2024-01-15T05:39:53;9.00;;;3.00;;
21122;SDS011;10719;48.130;11.630;2024-01-15T05:42:18;10.70;;;3.43;;
21122;SDS011;10719;48.130;11.630;2024-01-15T05:44:44;9.40;;;3.13;;
21122;SDS011;10719;48.130;11.630;2024-01-15T05:47:10;6.67;;;2.47;;
21122;SDS011;10719;48.130;11.630;2024-01-15T05:49:35;9.00;;;2.70;;
21122;SDS011;10719;48.130;11.630;2024-01-15T05:52:01;11.83;;;2.93;;
21122;SDS011;10719;48.130;11.630;2024-01-15T05:54:26;10.77;;;2.93;;
21122;SDS011;10719;48.130;11.630;2024-01-15T05:56:52;8.63;;;2.93;;
21122;SDS011;10719;48.130;11.630;2024-01-15T05:59:18;9.87;;;2.90;;
21122;SDS011;10719;48.130;11.630;2024-01-15T06:01:43;8.73;;;2.97;;
21122;SDS011;10719;48.130;11.630;2024-01-15T06:04:09;5.27;;;1.87;;
21122;SDS011;10719;48.130;11.630;2024-01-15T06:06:34;7.27;;;2.53;;
21122;SDS011;10719;48.130;11.630;2024-01-15T06:09:00;8.63;;;2.73;;
21122;SDS011;10719;48.130;11.630;2024-01-15T06:11:30;9.10;;;2.90;;
21122;SDS011;10719;48.130;11.630;2024-01-15T06:13:57;8.63;;;2.93;;
21122;SDS011;10719;48.130;11.630;2024-01-15T06:16:23;5.73;;;1.77;;
21122;SDS011;10719;48.130;11.630;2024-01-15T06:18:49;6.87;;;2.60;;
21122;SDS011;10719;48.130;11.630;2024-01-15T06:21:15;8.87;;;3.07;;
21122;SDS011;10719;48.130;11.630;2024-01-15T06:23:41;5.80;;;2.10;;
21122;SDS011;10719;48.130;11.630;2024-01-15T06:26:06;8.03;;;3.07;;
21122;SDS011;10719;48.130;11.630;2024-01-15T06:28:32;11.37;;;3.27;;
21122;SDS011;10719;48.130;11.630;2024-01-15T06:30:57;6.40;;;2.33;;
21122;SDS011;10719;48.130;11.630;2024-01-15T06:33:23;10.07;;;2.80;;
21122;SDS011;10719;48.130;11.630;2024-01-15T06:35:49;9.63;;;2.83;;
21122;SDS011;10719;48.130;11.630;2024-01-15T06:38:15;6.10;;;2.13;;
21122;SDS011;10719;48.130;11.630;2024-01-15T06:40:41;9.30;;;3.30;;
21122;SDS011;10719;48.130;11.630;2024-01-15T06:43:10;11.93;;;2.70;;
21122;SDS011;10719;48.130;11.630;2024-01-15T06:45:36;9.00;;;2.93;;
21122;SDS011;10719;48.130;11.630;2024-01-15T06:48:02;4.47;;;1.70;;
21122;SDS011;10719;48.130;11.630;2024-01-15T06:50:28;7.60;;;2.47;;
21122;SDS011;10719;48.130;11.630;2024-01-15T06:52:54;7.00;;;2.20;;
21122;SDS011;10719;48.130;11.630;2024-01-15T06:55:19;6.50;;;2.53;;
21122;SDS011;10719;48.130;11.630;2024-01-15T06:57:45;6.37;;;2.37;;
21122;SDS011;10719;48.130;11.630;2024-01-15T07:00:11;4.73;;;2.00;;
21122;SDS011;10719;48.130;11.630;2024-01-15T07:02:37;9.20;;;2.53;;
21122;SDS011;10719;48.130;11.630;2024-01-15T07:05:02;7.67;;;2.17;;
21122;SDS011;10719;48.130;11.630;2024-01-15T07:07:30;11.03;;;3.13;;
21122;SDS011;10719;48.130;11.630;2024-01-15T07:09:56;9.00;;;3.50;;
21122;SDS011;10719;48.130;11.630;2024-01-15T07:12:22;8.03;;;2.33;;
21122;SDS011;10719;48.130;11.630;2024-01-15T07:14:48;6.20;;;2.50;;
21122;SDS011;10719;48.130;11.630;2024-01-15T07:17:15;9.57;;;2.47;;
21122;SDS011;10719;48.130;11.630;2024-01-15T07:19:40;7.97;;;2.80;;
21122;SDS011;10719;48.130;11.630;2024-01-15T07:22:06;7.67;;;2.50;;
21122;SDS011;10719;48.130;11.630;2024-01-15T07:24:32;10.90;;;2.97;;
21122;SDS011;10719;48.130;11.630;2024-01-15T07:26:59;5.07;;;2.00;;
21122;SDS011;10719;48.130;11.630;2024-01-15T07:29:25;11.10;;;3.30;;
21122;SDS011;10719;48.130;11.630;2024-01-15T07:31:51;14.73;;;3.10;;
21122;SDS011;10719;48.130;11.630;2024-01-15T07:34:17;6.80;;;2.23;;
21122;SDS011;10719;48.130;11.630;2024-01-15T07:36:46;13.47;;;3.10;;
21122;SDS011;10719;48.130;11.630;2024-01-15T07:39:12;7.80;;;2.40;;
21122;SDS011;10719;48.130;11.630;2024-01-15T07:41:38;6.37;;;2.17;;
21122;SDS011;10719;48.130;11.630;2024-01-15T07:44:04;6.83;;;2.50;;
21122;SDS011;10719;48.130;11.630;2024-01-15T07:46:30;7.87;;;2.67;;
21122;SDS011;10719;48.130;11.630;2024-01-15T07:48:55;8.40;;;2.93;;
21122;SDS011;10719;48.130;11.630;2024-01-15T07:51:22;9.53;;;3.50;;
21122;SDS011;10719;48.130;11.630;2024-01-15T07:53:48;12.87;;;3.37;;
21122;SDS011;10719;48.130;11.630;2024-01-15T07:56:14;8.20;;;2.73;;
21122;SDS011;10719;48.130;11.630;2024-01-15T07:58:40;5.63;;;2.33;;
21122;SDS011;10719;48.130;11.630;2024-01-15T08:01:06;10.00;;;3.07;;
21122;SDS011;10719;48.130;11.630;2024-01-15T08:03:32;10.20;;;2.83;;
21122;SDS011;10719;48.130;11.630;2024-01-15T08:05:58;6.40;;;2.20;;
21122;SDS011;10719;48.130;11.630;2024-01-15T08:08:25;9.10;;;3.00;;
21122;SDS011;10719;48.130;11.630;2024-01-15T08:10:53;7.93;;;2.40;;
21122;SDS011;10719;48.130;11.630;2024-01-15T08:13:20;5.97;;;2.13;;
21122;SDS011;10719;48.130;11.630;2024-01-15T08:15:46;11.63;;;4.03;;
21122;SDS011;10719;48.130;11.630;2024-01-15T08:18:11;11.83;;;3.43;;
21122;SDS011;10719;48.130;11.630;2024-01-15T08:20:37;7.60;;;2.90;;
21122;SDS011;10719;48.130;11.630;2024-01-15T08:23:03;6.00;;;2.53;;
21122;SDS011;10719;48.130;11.630;2024-01-15T08:25:29;8.67;;;3.10;;
21122;SDS011;10719;48.130;11.630;2024-01-15T08:27:56;8.90;;;2.80;;
21122;SDS011;10719;48.130;11.630;2024-01-15T08:30:22;8.83;;;2.90;;
21122;SDS011;10719;48.130;11.630;2024-01-15T08:32:52;8.33;;;2.43;;
21122;SDS011;10719;48.130;11.630;2024-01-15T08:35:18;10.17;;;2.97;;
21122;SDS011;10719;48.130;11.630;2024-01-15T08:37:47;9.87;;;3.37;;
21122;SDS011;10719;48.130;11.630;2024-01-15T08:40:14;10.17;;;2.60;;
21122;SDS011;10719;48.130;11.630;2024-01-15T08:42:41;8.17;;;2.50;;
21122;SDS011;10719;48.130;11.630;2024-01-15T08:45:08;8.47;;;2.83;;
21122;SDS011;10719;48.130;11.630;2024-01-15T08:47:35;7.33;;;2.70;;
21122;SDS011;10719;48.130;11.630;2024-01-15T08:50:01;9.43;;;2.93;;
21122;SDS011;10719;48.130;11.630;2024-01-15T08:52:28;7.73;;;2.50;;
21122;SDS011;10719;48.130;11.630;2024-01-15T08:54:54;9.10;;;2.90;;
21122;SDS011;10719;48.130;11.630;2024-01-15T08:57:22;8.67;;;2.60;;
21122;SDS011;10719;48.130;11.630;2024-01-15T08:59:47;8.73;;;2.80;;
21122;SDS011;10719;48.130;11.630;2024-01-15T09:02:13;10.77;;;3.17;;
21122;SDS011;10719;48.130;11.630;2024-01-15T09:04:39;8.23;;;2.60;;
21122;SDS011;10719;48.130;11.630;2024-01-15T09:07:05;8.43;;;2.83;;
21122;SDS011;10719;48.130;11.630;2024-01-15T09:09:32;5.43;;;2.37;;
21122;SDS011;10719;48.130;11.630;2024-01-15T09:11:57;9.80;;;3.37;;
21122;SDS011;10719;48.130;11.630;2024-01-15T09:14:23;9.33;;;2.97;;
21122;SDS011;10719;48.130;11.630;2024-01-15T09:16:49;11.17;;;3.63;;
21122;SDS011;10719;48.130;11.630;2024-01-15T09:19:15;9.40;;;3.67;;
21122;SDS011;10719;48.130;11.630;2024-01-15T09:21:41;10.47;;;3.17;;
21122;SDS011;10719;48.130;11.630;2024-01-15T09:24:06;9.90;;;3.23;;
21122;SDS011;10719;48.130;11.630;2024-01-15T09:26:32;10.67;;;2.53;;
21122;SDS011;10719;48.130;11.630;2024-01-15T09:28:58;9.17;;;2.60;;
21122;SDS011;10719;48.130;11.630;2024-01-15T09:31:23;7.17;;;2.80;;
21122;SDS011;10719;48.130;11.630;2024-01-15T09:33:49;8.10;;;2.43;;
21122;SDS011;10719;48.130;11.630;2024-01-15T09:36:21;8.27;;;3.00;;
21122;SDS011;10719;48.130;11.630;2024-01-15T09:38:47;11.57;;;3.00;;
21122;SDS011;10719;48.130;11.630;2024-01-15T09:41:13;12.63;;;3.10;;
21122;SDS011;10719;48.130;11.630;2024-01-15T09:43:40;8.33;;;2.93;;
21122;SDS011;10719;48.130;11.630;2024-01-15T09:46:05;6.23;;;2.20;;
21122;SDS011;10719;48.130;11.630;2024-01-15T09:48:31;10.37;;;3.43;;
21122;SDS011;10719;48.130;11.630;2024-01-15T09:50:59;9.90;;;3.17;;
21122;SDS011;10719;48.130;11.630;2024-01-15T09:53:26;8.43;;;2.70;;
21122;SDS011;10719;48.130;11.630;2024-01-15T09:55:52;12.87;;;3.40;;
21122;SDS011;10719;48.130;11.630;2024-01-15T09:58:18;6.13;;;1.93;;
21122;SDS011;10719;48.130;11.630;2024-01-15T10:00:44;6.20;;;2.37;;
21122;SDS011;10719;48.130;11.630;2024-01-15T10:03:10;9.33;;;2.40;;
21122;SDS011;10719;48.130;11.630;2024-01-15T10:05:36;8.73;;;3.43;;
21122;SDS011;10719;48.130;11.630;2024-01-15T10:08:03;11.80;;;2.87;;
21122;SDS011;10719;48.130;11.630;2024-01-15T10:10:30;7.50;;;2.60;;
21122;SDS011;10719;48.130;11.630;2024-01-15T10:12:56;7.03;;;2.50;;
21122;SDS011;10719;48.130;11.630;2024-01-15T10:15:24;7.67;;;2.40;;
21122;SDS011;10719;48.130;11.630;2024-01-15T10:17:51;7.30;;;2.50;;
21122;SDS011;10719;48.130;11.630;2024-01-15T10:20:17;6.97;;;2.17;;
21122;SDS011;10719;48.130;11.630;2024-01-15T10:22:43;6.40;;;2.10;;
21122;SDS011;10719;48.130;11.630;2024-01-15T10:25:12;7.87;;;2.20;;
21122;SDS011;10719;48.130;11.630;2024-01-15T10:27:38;4.83;;;1.73;;
21122;SDS011;10719;48.130;11.630;2024-01-15T10:30:05;5.87;;;1.80;;
21122;SDS011;10719;48.130;11.630;2024-01-15T10:32:31;4.77;;;2.10;;
21122;SDS011;10719;48.130;11.630;2024-01-15T10:34:57;3.57;;;1.30;;
21122;SDS011;10719;48.130;11.630;2024-01-15T10:37:23;2.70;;;1.23;;
21122;SDS011;10719;48.130;11.630;2024-01-15T10:39:49;9.73;;;2.20;;
21122;SDS011;10719;48.130;11.630;2024-01-15T10:42:15;6.97;;;2.30;;
21122;SDS011;10719;48.130;11.630;2024-01-15T10:44:43;5.73;;;1.90;;
21122;SDS011;10719;48.130;11.630;2024-01-15T10:47:09;5.10;;;1.70;;
21122;SDS011;10719;48.130;11.630;2024-01-15T10:49:35;7.03;;;1.97;;
21122;SDS011;10719;48.130;11.630;2024-01-15T10:52:02;5.97;;;2.23;;
21122;SDS011;10719;48.130;11.630;2024-01-15T10:54:28;7.37;;;1.60;;
21122;SDS011;10719;48.130;11.630;2024-01-15T10:56:55;3.87;;;1.40;;
21122;SDS011;10719;48.130;11.630;2024-01-15T10:59:21;6.40;;;2.30;;
21122;SDS011;10719;48.130;11.630;2024-01-15T11:01:47;6.90;;;2.20;;
21122;SDS011;10719;48.130;11.630;2024-01-15T11:04:14;5.03;;;1.87;;
21122;SDS011;10719;48.130;11.630;2024-01-15T11:06:44;6.50;;;2.00;;
21122;SDS011;10719;48.130;11.630;2024-01-15T11:09:12;6.77;;;1.80;;
21122;SDS011;10719;48.130;11.630;2024-01-15T11:11:40;7.17;;;1.90;;
21122;SDS011;10719;48.130;11.630;2024-01-15T11:14:29;7.93;;;2.47;;
21122;SDS011;10719;48.130;11.630;2024-01-15T11:17:15;6.60;;;2.30;;
21122;SDS011;10719;48.130;11.630;2024-01-15T11:19:46;6.67;;;2.17;;
21122;SDS011;10719;48.130;11.630;2024-01-15T11:24:56;4.47;;;1.80;;
21122;SDS011;10719;48.130;11.630;2024-01-15T11:30:16;7.40;;;1.83;;
21122;SDS011;10719;48.130;11.630;2024-01-15T11:32:42;9.33;;;2.00;;
21122;SDS011;10719;48.130;11.630;2024-01-15T11:35:10;6.70;;;2.23;;
21122;SDS011;10719;48.130;11.630;2024-01-15T11:37:56;6.20;;;2.07;;
21122;SDS011;10719;48.130;11.630;2024-01-15T11:40:35;5.07;;;1.80;;
21122;SDS011;10719;48.130;11.630;2024-01-15T11:43:07;7.00;;;1.80;;
21122;SDS011;10719;48.130;11.630;2024-01-15T11:45:34;4.70;;;1.73;;
21122;SDS011;10719;48.130;11.630;2024-01-15T11:48:10;4.33;;;1.60;;
21122;SDS011;10719;48.130;11.630;2024-01-15T11:50:39;6.23;;;1.30;;
21122;SDS011;10719;48.130;11.630;2024-01-15T11:53:10;4.90;;;1.80;;
21122;SDS011;10719;48.130;11.630;2024-01-15T11:56:00;5.60;;;1.70;;
21122;SDS011;10719;48.130;11.630;2024-01-15T11:58:27;4.30;;;1.73;;
21122;SDS011;10719;48.130;11.630;2024-01-15T12:00:54;2.67;;;1.00;;
21122;SDS011;10719;48.130;11.630;2024-01-15T12:03:23;3.70;;;1.50;;
21122;SDS011;10719;48.130;11.630;2024-01-15T12:05:49;4.07;;;1.67;;
21122;SDS011;10719;48.130;11.630;2024-01-15T12:08:26;4.20;;;1.43;;
21122;SDS011;10719;48.130;11.630;2024-01-15T12:10:52;4.07;;;1.53;;
21122;SDS011;10719;48.130;11.630;2024-01-15T12:13:18;5.10;;;1.77;;
21122;SDS011;10719;48.130;11.630;2024-01-15T12:15:45;3.47;;;1.63;;
21122;SDS011;10719;48.130;11.630;2024-01-15T12:18:12;3.03;;;1.53;;
21122;SDS011;10719;48.130;11.630;2024-01-15T12:20:39;5.37;;;1.60;;
21122;SDS011;10719;48.130;11.630;2024-01-15T12:23:05;5.60;;;1.30;;
21122;SDS011;10719;48.130;11.630;2024-01-15T12:25:31;5.23;;;1.53;;
21122;SDS011;10719;48.130;11.630;2024-01-15T12:27:58;3.40;;;1.47;;
21122;SDS011;10719;48.130;11.630;2024-01-15T12:30:28;3.53;;;1.47;;
21122;SDS011;10719;48.130;11.630;2024-01-15T12:32:56;2.60;;;1.23;;
21122;SDS011;10719;48.130;11.630;2024-01-15T12:35:23;4.23;;;1.33;;
21122;SDS011;10719;48.130;11.630;2024-01-15T12:37:51;6.60;;;1.50;;
21122;SDS011;10719;48.130;11.630;2024-01-15T12:40:19;7.97;;;1.60;;
21122;SDS011;10719;48.130;11.630;2024-01-15T12:42:46;3.93;;;1.37;;
21122;SDS011;10719;48.130;11.630;2024-01-15T12:45:12;4.77;;;1.50;;
21122;SDS011;10719;48.130;11.630;2024-01-15T12:47:39;3.87;;;1.30;;
21122;SDS011;10719;48.130;11.630;2024-01-15T12:50:06;3.17;;;1.30;;
21122;SDS011;10719;48.130;11.630;2024-01-15T12:52:33;6.73;;;1.63;;
21122;SDS011;10719;48.130;11.630;2024-01-15T12:54:59;3.30;;;1.23;;
21122;SDS011;10719;48.130;11.630;2024-01-15T12:57:25;4.30;;;1.60;;
21122;SDS011;10719;48.130;11.630;2024-01-15T12:59:50;4.47;;;1.63;;
21122;SDS011;10719;48.130;11.630;2024-01-15T13:02:16;4.57;;;1.50;;
21122;SDS011;10719;48.130;11.630;2024-01-15T13:04:41;5.17;;;1.87;;
21122;SDS011;10719;48.130;11.630;2024-01-15T13:07:07;4.77;;;1.60;;
21122;SDS011;10719;48.130;11.630;2024-01-15T13:09:33;4.07;;;1.40;;
21122;SDS011;10719;48.130;11.630;2024-01-15T13:12:00;4.00;;;1.40;;
21122;SDS011;10719;48.130;11.630;2024-01-15T13:14:26;3.80;;;1.50;;
21122;SDS011;10719;48.130;11.630;2024-01-15T13:16:52;4.03;;;1.60;;
21122;SDS011;10719;48.130;11.630;2024-01-15T13:19:18;5.17;;;1.80;;
21122;SDS011;10719;48.130;11.630;2024-01-15T13:21:47;7.10;;;1.63;;
21122;SDS011;10719;48.130;11.630;2024-01-15T13:24:14;4.20;;;1.63;;
21122;SDS011;10719;48.130;11.630;2024-01-15T13:26:40;5.63;;;1.90;;
21122;SDS011;10719;48.130;11.630;2024-01-15T13:29:06;5.90;;;2.27;;
21122;SDS011;10719;48.130;11.630;2024-01-15T13:31:32;6.53;;;2.13;;
21122;SDS011;10719;48.130;11.630;2024-01-15T13:33:58;5.97;;;1.67;;
21122;SDS011;10719;48.130;11.630;2024-01-15T13:36:27;5.83;;;1.70;;
21122;SDS011;10719;48.130;11.630;2024-01-15T13:38:53;8.87;;;2.43;;
21122;SDS011;10719;48.130;11.630;2024-01-15T13:41:19;6.03;;;2.37;;
21122;SDS011;10719;48.130;11.630;2024-01-15T13:43:50;5.60;;;1.70;;
21122;SDS011;10719;48.130;11.630;2024-01-15T13:46:18;6.63;;;1.30;;
21122;SDS011;10719;48.130;11.630;2024-01-15T13:48:44;5.93;;;1.87;;
21122;SDS011;10719;48.130;11.630;2024-01-15T13:51:09;5.47;;;1.87;;
21122;SDS011;10719;48.130;11.630;2024-01-15T13:53:37;6.50;;;2.20;;
21122;SDS011;10719;48.130;11.630;2024-01-15T13:56:03;8.50;;;2.27;;
21122;SDS011;10719;48.130;11.630;2024-01-15T13:58:30;6.17;;;1.77;;
21122;SDS011;10719;48.130;11.630;2024-01-15T14:00:56;5.50;;;1.80;;
21122;SDS011;10719;48.130;11.630;2024-01-15T14:03:21;4.47;;;1.80;;
21122;SDS011;10719;48.130;11.630;2024-01-15T14:05:48;7.47;;;2.17;;
21122;SDS011;10719;48.130;11.630;2024-01-15T14:08:16;5.23;;;2.03;;
21122;SDS011;10719;48.130;11.630;2024-01-15T14:10:41;5.03;;;1.90;;
21122;SDS011;10719;48.130;11.630;2024-01-15T14:13:07;7.57;;;2.60;;
21122;SDS011;10719;48.130;11.630;2024-01-15T14:15:33;7.70;;;1.90;;
21122;SDS011;10719;48.130;11.630;2024-01-15T14:17:59;5.57;;;1.67;;
21122;SDS011;10719;48.130;11.630;2024-01-15T14:20:26;5.23;;;2.17;;
21122;SDS011;10719;48.130;11.630;2024-01-15T14:22:51;6.90;;;2.17;;
21122;SDS011;10719;48.130;11.630;2024-01-15T14:25:17;6.50;;;1.87;;
21122;SDS011;10719;48.130;11.630;2024-01-15T14:27:42;4.13;;;1.80;;
21122;SDS011;10719;48.130;11.630;2024-01-15T14:30:08;6.20;;;2.20;;
21122;SDS011;10719;48.130;11.630;2024-01-15T14:32:34;5.90;;;2.13;;